Impacts TAF Board
For situational awareness. Not to be used for flight planning purposes.
IDs:

KOKC - Oklahoma City/Will R, OK, US

Issued at 0520 UTC 18 Jan 2022
Updated at 1046 UTC 18 Jan 2022
Potential Impact None Slight Moderate High
Time<<18/23Z 19/00Z 19/01Z 19/02Z 19/03Z 19/04Z 19/05Z 19/06Z 19/07Z 19/08Z 19/09Z 19/10Z 19/11Z>>
Type PRVL PRVL PRVL PRVL PRVL PRVL PRVL
VIS >6 >6 >6 >6 >6 >6 >6
CIG 250 -- -- -- -- -- --
Cover BKN SCT SCT SCT SCT SCT SCT
FltCat VFR VFR VFR VFR VFR VFR VFR
WX -- -- -- -- -- -- --
WDir 190 110 110 110 110 110 110
WSpd 14 7 7 7 7 7 7
WGst 24 -- -- -- -- -- --
WSHgt -- -- -- -- -- -- --
WSDir -- -- -- -- -- -- --
WSSpd -- -- -- -- -- -- --
R13/31
XWnd -11 3 3 3 3 3 3 0 0 0 0 0 0
XGst -20 -- -- -- -- -- -- -- -- -- -- -- --
HWnd 8 6 6 6 6 6 6 0 0 0 0 0 0
HGst 14 -- -- -- -- -- -- -- -- -- -- -- --
R17/35
XWnd -2 7 7 7 7 7 7 0 0 0 0 0 0
XGst -4 -- -- -- -- -- -- -- -- -- -- -- --
HWnd 14 2 2 2 2 2 2 0 0 0 0 0 0
HGst 24 -- -- -- -- -- -- -- -- -- -- -- --
R18/36
XWnd -2 7 7 7 7 7 7 0 0 0 0 0 0
XGst -4 -- -- -- -- -- -- -- -- -- -- -- --
HWnd 14 2 2 2 2 2 2 0 0 0 0 0 0
HGst 24 -- -- -- -- -- -- -- -- -- -- -- --
Raw TAF
KOKC 180520Z 1806/1906 18011KT P6SM SCT250 WS020/20040KT
  FM181500 19014G24KT P6SM SCT150 BKN250
  FM190000 11007KT P6SM SCT150


METAR Board
Radar Display
Forecast Discussion
For situational awareness. Not to be used for flight planning purposes.